createdAt,value
2022-10-22T00:01:19.702Z,20.50
2022-10-22T00:03:46.470Z,14.00
2022-10-22T00:06:13.574Z,14.30
2022-10-22T00:08:40.272Z,13.20
2022-10-22T00:11:12.870Z,13.90
2022-10-22T00:13:40.174Z,13.10
2022-10-22T00:16:07.514Z,13.30
2022-10-22T00:18:34.565Z,23.40
2022-10-22T00:21:01.895Z,13.80
2022-10-22T00:23:28.697Z,15.10
2022-10-22T00:25:55.492Z,24.80
2022-10-22T00:28:22.878Z,13.90
2022-10-22T00:30:56.801Z,13.90
2022-10-22T00:33:24.473Z,13.00
2022-10-22T00:35:51.206Z,63.60
2022-10-22T00:38:18.190Z,23.00
2022-10-22T00:40:45.326Z,24.10
2022-10-22T00:43:14.851Z,16.20
2022-10-22T00:45:42.168Z,14.60
2022-10-22T00:48:12.831Z,30.00
2022-10-22T00:50:41.062Z,13.30
2022-10-22T00:53:15.270Z,14.60
2022-10-22T00:55:43.808Z,15.30
2022-10-22T00:58:12.479Z,12.20
2022-10-22T01:00:39.635Z,13.10
2022-10-22T01:03:06.415Z,15.30
2022-10-22T01:05:51.662Z,11.60
2022-10-22T01:08:36.507Z,10.70
2022-10-22T01:11:28.502Z,11.30
2022-10-22T01:14:09.725Z,10.40
2022-10-22T01:16:45.535Z,10.30
2022-10-22T01:19:39.365Z,10.40
2022-10-22T01:22:35.425Z,10.70
2022-10-22T01:25:20.277Z,8.30
2022-10-22T01:28:17.079Z,8.50
2022-10-22T01:30:46.040Z,8.80
2022-10-22T01:33:17.377Z,8.50
2022-10-22T01:35:44.908Z,8.40
2022-10-22T01:38:24.156Z,8.70
2022-10-22T01:40:51.371Z,9.00
2022-10-22T01:43:18.499Z,9.20
2022-10-22T01:45:53.450Z,12.20
2022-10-22T01:49:03.582Z,9.30
2022-10-22T01:52:13.652Z,9.30
2022-10-22T01:54:59.457Z,9.00
2022-10-22T01:57:52.900Z,10.10
2022-10-22T02:00:20.522Z,9.10
2022-10-22T02:02:53.152Z,10.50
2022-10-22T02:05:37.702Z,10.50
2022-10-22T02:10:42.926Z,9.20
2022-10-22T02:13:15.499Z,9.60
2022-10-22T02:15:45.771Z,8.00
2022-10-22T02:18:13.784Z,8.80
2022-10-22T02:20:41.947Z,10.20
2022-10-22T02:23:09.894Z,9.70
2022-10-22T02:25:41.248Z,9.60
2022-10-22T02:28:17.126Z,9.00
2022-10-22T02:30:51.404Z,10.60
2022-10-22T02:35:51.550Z,9.30
2022-10-22T02:38:19.275Z,10.40
2022-10-22T02:40:46.235Z,10.80
2022-10-22T02:43:12.939Z,9.50
2022-10-22T02:45:39.959Z,11.00
2022-10-22T02:48:06.763Z,10.10
2022-10-22T02:50:33.520Z,8.20
2022-10-22T02:53:00.535Z,9.20
2022-10-22T02:55:27.367Z,8.80
2022-10-22T02:57:54.201Z,9.00
2022-10-22T03:00:21.051Z,10.00
2022-10-22T03:02:47.687Z,8.80
2022-10-22T03:05:14.552Z,9.20
2022-10-22T03:07:41.360Z,10.10
2022-10-22T03:10:09.234Z,9.40
2022-10-22T03:12:35.935Z,9.70
2022-10-22T03:15:03.065Z,9.70
2022-10-22T03:17:29.779Z,10.30
2022-10-22T03:19:56.540Z,9.30
2022-10-22T03:22:31.976Z,9.70
2022-10-22T03:25:02.798Z,9.60
2022-10-22T03:27:29.920Z,9.70
2022-10-22T03:29:58.424Z,9.50
2022-10-22T03:32:25.151Z,17.40
2022-10-22T03:34:51.855Z,25.80
2022-10-22T03:37:19.377Z,13.20
2022-10-22T03:39:46.509Z,11.40
2022-10-22T03:42:13.314Z,10.40
2022-10-22T03:44:40.898Z,10.30
2022-10-22T03:47:08.014Z,10.30
2022-10-22T03:49:35.050Z,9.20
2022-10-22T03:52:10.678Z,10.30
2022-10-22T03:57:06.659Z,10.20
2022-10-22T03:59:38.575Z,11.90
2022-10-22T04:02:05.887Z,10.10
2022-10-22T04:04:32.848Z,8.50
2022-10-22T04:06:59.626Z,9.20
2022-10-22T04:09:26.281Z,10.60
2022-10-22T04:11:53.164Z,10.70
2022-10-22T04:14:19.982Z,9.70
2022-10-22T04:16:46.698Z,9.70
2022-10-22T04:19:14.038Z,8.60
2022-10-22T04:21:41.430Z,11.80
2022-10-22T04:24:08.297Z,15.70
2022-10-22T04:26:35.504Z,21.00
2022-10-22T04:29:02.819Z,13.40
2022-10-22T04:31:29.575Z,16.10
2022-10-22T04:33:58.893Z,15.80
2022-10-22T04:36:26.764Z,39.20
2022-10-22T04:38:59.994Z,15.70
2022-10-22T04:41:29.933Z,12.60
2022-10-22T04:43:57.241Z,10.90
2022-10-22T04:46:26.037Z,16.30
2022-10-22T04:48:52.888Z,23.70
2022-10-22T04:51:23.134Z,24.20
2022-10-22T04:53:50.371Z,21.10
2022-10-22T04:56:21.428Z,16.90
2022-10-22T04:58:50.324Z,14.50
2022-10-22T05:01:23.031Z,15.40
2022-10-22T05:03:52.304Z,12.80
2022-10-22T05:06:20.369Z,19.60
2022-10-22T05:08:48.559Z,12.50
2022-10-22T05:11:21.567Z,15.60
2022-10-22T05:13:48.257Z,11.40
2022-10-22T05:16:14.979Z,12.70
2022-10-22T05:18:43.808Z,11.10
2022-10-22T05:21:16.400Z,11.90
2022-10-22T05:23:44.267Z,13.10
2022-10-22T05:26:13.273Z,13.70
2022-10-22T05:28:40.456Z,18.80
2022-10-22T05:31:10.342Z,16.00
2022-10-22T05:33:37.532Z,14.20
2022-10-22T05:36:06.701Z,16.40
2022-10-22T05:38:35.294Z,23.20
2022-10-22T05:41:09.497Z,20.70
2022-10-22T05:43:37.413Z,24.40
2022-10-22T05:46:07.269Z,56.00
2022-10-22T05:48:34.535Z,31.40
2022-10-22T05:51:04.970Z,36.30
2022-10-22T05:53:37.397Z,40.90
2022-10-22T05:56:13.349Z,44.10
2022-10-22T05:58:40.194Z,33.10
2022-10-22T06:01:21.625Z,17.30
2022-10-22T06:03:49.164Z,21.40
2022-10-22T06:06:36.526Z,17.60
2022-10-22T06:09:10.829Z,19.60
2022-10-22T06:11:37.628Z,20.10
2022-10-22T06:14:05.640Z,23.40
2022-10-22T06:16:33.626Z,20.30
2022-10-22T06:19:04.007Z,20.90
2022-10-22T06:21:33.609Z,20.00
2022-10-22T06:24:01.810Z,16.50
2022-10-22T06:26:29.380Z,50.80
2022-10-22T06:28:57.665Z,31.50
2022-10-22T06:31:26.368Z,93.80
2022-10-22T06:33:54.094Z,19.00
2022-10-22T06:36:23.871Z,26.70
2022-10-22T06:38:53.018Z,23.90
2022-10-22T06:41:24.385Z,25.00
2022-10-22T06:43:55.367Z,28.90
2022-10-22T06:46:25.127Z,34.80
2022-10-22T06:48:57.955Z,35.80
2022-10-22T06:51:27.285Z,33.80
2022-10-22T06:53:56.258Z,30.60
2022-10-22T06:56:29.561Z,28.80
2022-10-22T06:58:58.273Z,27.20
2022-10-22T07:01:31.706Z,24.40
2022-10-22T07:04:01.570Z,25.50
2022-10-22T07:06:32.580Z,16.60
2022-10-22T07:09:00.921Z,17.90
2022-10-22T07:11:32.426Z,19.00
2022-10-22T07:13:59.887Z,17.20
2022-10-22T07:16:31.192Z,18.60
2022-10-22T07:19:00.969Z,18.50
2022-10-22T07:21:29.103Z,16.80
2022-10-22T07:23:56.936Z,16.50
2022-10-22T07:26:27.591Z,19.00
2022-10-22T07:28:55.257Z,18.30
2022-10-22T07:31:22.702Z,16.50
2022-10-22T07:33:50.256Z,16.90
2022-10-22T07:36:18.342Z,15.90
2022-10-22T07:38:48.812Z,17.10
2022-10-22T07:41:17.117Z,17.60
2022-10-22T07:43:44.353Z,17.70
2022-10-22T07:46:11.952Z,18.20
2022-10-22T07:48:40.218Z,16.30
2022-10-22T07:51:07.788Z,14.80
2022-10-22T07:53:35.143Z,14.20
2022-10-22T07:56:02.106Z,13.10
2022-10-22T07:58:29.717Z,13.40
2022-10-22T08:01:00.512Z,14.40
2022-10-22T08:03:29.446Z,14.80
2022-10-22T08:06:00.745Z,12.50
2022-10-22T08:08:30.694Z,14.10
2022-10-22T08:11:01.542Z,13.20
2022-10-22T08:13:32.603Z,14.80
2022-10-22T08:16:00.884Z,15.40
2022-10-22T08:18:28.949Z,11.30
2022-10-22T08:20:57.176Z,11.90
2022-10-22T08:23:28.711Z,11.30
2022-10-22T08:25:57.045Z,10.30
2022-10-22T08:28:25.568Z,10.10
2022-10-22T08:30:54.907Z,10.90
2022-10-22T08:33:24.551Z,10.60
2022-10-22T08:35:52.417Z,9.90
2022-10-22T08:38:19.836Z,10.10
2022-10-22T08:40:51.172Z,10.10
2022-10-22T08:43:37.190Z,10.20
2022-10-22T08:46:10.644Z,10.40
2022-10-22T08:48:52.284Z,9.80
2022-10-22T08:51:24.449Z,10.60
2022-10-22T08:54:06.143Z,11.90
2022-10-22T08:56:36.149Z,14.20
2022-10-22T08:59:26.655Z,48.80
2022-10-22T09:01:57.615Z,37.50
2022-10-22T09:04:31.299Z,13.90
2022-10-22T09:07:00.080Z,12.50
2022-10-22T09:09:33.006Z,19.00
2022-10-22T09:12:02.117Z,19.40
2022-10-22T09:14:29.527Z,10.90
2022-10-22T09:17:14.295Z,12.70
2022-10-22T09:20:15.847Z,13.30
2022-10-22T09:22:59.235Z,9.70
2022-10-22T09:25:29.063Z,10.50
2022-10-22T09:27:59.553Z,14.20
2022-10-22T09:30:32.580Z,15.60
2022-10-22T09:33:08.305Z,12.70
2022-10-22T09:35:58.279Z,14.30
2022-10-22T09:38:29.754Z,14.30
2022-10-22T09:40:59.599Z,17.90
2022-10-22T09:43:27.502Z,18.80
2022-10-22T09:46:05.194Z,22.70
2022-10-22T09:48:40.895Z,20.10
2022-10-22T09:51:18.250Z,18.00
2022-10-22T09:53:55.693Z,18.50
2022-10-22T09:56:27.347Z,14.60
2022-10-22T09:58:57.062Z,15.50
2022-10-22T10:01:30.761Z,17.30
2022-10-22T10:04:09.926Z,15.80
2022-10-22T10:06:39.789Z,15.00
2022-10-22T10:09:19.919Z,16.80
2022-10-22T10:12:05.828Z,13.10
2022-10-22T10:14:54.423Z,11.00
2022-10-22T10:17:44.844Z,9.30
2022-10-22T10:20:35.782Z,9.00
2022-10-22T10:23:35.397Z,8.60
2022-10-22T10:26:13.330Z,9.90
2022-10-22T10:28:46.248Z,9.70
2022-10-22T10:31:38.287Z,9.60
2022-10-22T10:34:36.223Z,9.60
2022-10-22T10:37:09.139Z,12.50
2022-10-22T10:39:59.492Z,7.70
2022-10-22T10:42:40.689Z,8.00
2022-10-22T10:45:44.407Z,9.40
2022-10-22T10:48:21.681Z,8.50
2022-10-22T10:51:08.070Z,7.20
2022-10-22T10:54:11.963Z,6.70
2022-10-22T10:56:44.132Z,6.80
2022-10-22T10:59:26.817Z,6.70
2022-10-22T11:02:08.618Z,8.30
2022-10-22T11:04:50.425Z,8.70
2022-10-22T11:07:34.247Z,8.60
2022-10-22T11:10:40.914Z,8.00
2022-10-22T11:13:22.614Z,7.30
2022-10-22T11:16:09.014Z,7.10
2022-10-22T11:18:42.057Z,7.10
2022-10-22T11:21:26.633Z,7.40
2022-10-22T11:23:57.961Z,7.20
2022-10-22T11:26:52.585Z,7.40
2022-10-22T11:29:27.231Z,8.20
2022-10-22T11:31:56.957Z,9.20
2022-10-22T11:34:48.041Z,8.60
2022-10-22T11:37:16.193Z,14.50
2022-10-22T11:39:48.688Z,19.00
2022-10-22T11:42:20.913Z,16.70
2022-10-22T11:44:49.495Z,10.60
2022-10-22T11:47:25.044Z,11.20
2022-10-22T11:49:58.983Z,11.10
2022-10-22T11:52:31.783Z,9.00
2022-10-22T11:55:02.079Z,5.20
2022-10-22T11:57:39.070Z,5.00
2022-10-22T12:00:30.599Z,6.50
2022-10-22T12:03:17.457Z,6.00
2022-10-22T12:05:46.074Z,6.20
2022-10-22T12:08:20.494Z,6.50
2022-10-22T12:11:03.490Z,6.90
2022-10-22T12:13:34.123Z,7.20
2022-10-22T12:16:04.855Z,7.30
2022-10-22T12:18:40.880Z,7.40
2022-10-22T12:21:13.574Z,7.40
2022-10-22T12:23:41.098Z,7.70
2022-10-22T12:26:23.180Z,8.30
2022-10-22T12:28:49.888Z,6.60
2022-10-22T12:31:17.137Z,7.20
2022-10-22T12:33:43.870Z,7.60
2022-10-22T12:36:18.033Z,7.30
2022-10-22T12:38:47.673Z,8.00
2022-10-22T12:41:14.888Z,9.60
2022-10-22T12:43:41.683Z,7.90
2022-10-22T12:46:13.228Z,7.10
2022-10-22T12:48:43.585Z,6.30
2022-10-22T12:51:19.961Z,6.10
2022-10-22T12:53:53.898Z,6.60
2022-10-22T12:56:27.034Z,8.10
2022-10-22T12:59:03.451Z,22.60
2022-10-22T13:01:38.854Z,14.10
2022-10-22T13:04:21.314Z,14.40
2022-10-22T13:07:03.065Z,14.70
2022-10-22T13:09:42.140Z,22.60
2022-10-22T13:12:15.627Z,14.40
2022-10-22T13:14:44.791Z,10.40
2022-10-22T13:17:18.860Z,9.10
2022-10-22T13:19:48.579Z,9.70
2022-10-22T13:22:26.346Z,10.90
2022-10-22T13:24:53.650Z,11.40
2022-10-22T13:27:20.352Z,12.10
2022-10-22T13:29:47.058Z,10.40
2022-10-22T13:32:33.683Z,10.80
2022-10-22T13:35:02.848Z,11.20
2022-10-22T13:37:31.838Z,9.40
2022-10-22T13:39:58.605Z,8.80
2022-10-22T13:42:25.487Z,8.30
2022-10-22T13:44:52.164Z,17.80
2022-10-22T13:47:27.305Z,16.80
2022-10-22T13:49:57.817Z,9.00
2022-10-22T13:52:27.994Z,8.70
2022-10-22T13:54:54.659Z,11.30
2022-10-22T13:57:21.367Z,11.90
2022-10-22T13:59:48.281Z,11.40
2022-10-22T14:02:15.847Z,11.10
2022-10-22T14:04:43.565Z,13.60
2022-10-22T14:07:14.200Z,13.40
2022-10-22T14:09:41.149Z,12.60
2022-10-22T14:12:16.550Z,14.40
2022-10-22T14:14:43.459Z,14.70
2022-10-22T14:17:16.237Z,15.10
2022-10-22T14:19:48.806Z,17.30
2022-10-22T14:22:19.950Z,19.20
2022-10-22T14:24:46.693Z,25.20
2022-10-22T14:27:14.995Z,29.00
2022-10-22T14:29:41.773Z,23.90
2022-10-22T14:32:13.696Z,23.70
2022-10-22T14:34:40.889Z,20.20
2022-10-22T14:37:19.756Z,18.50
2022-10-22T14:39:51.301Z,17.60
2022-10-22T14:42:19.418Z,15.50
2022-10-22T14:44:46.489Z,15.50
2022-10-22T14:47:13.259Z,19.00
2022-10-22T14:49:40.002Z,20.00
2022-10-22T14:52:09.539Z,24.70
2022-10-22T14:54:38.510Z,23.60
2022-10-22T14:57:05.418Z,17.70
2022-10-22T14:59:32.175Z,13.90
2022-10-22T15:01:59.011Z,15.00
2022-10-22T15:04:26.693Z,16.00
2022-10-22T15:06:55.839Z,16.40
2022-10-22T15:09:23.605Z,20.00
2022-10-22T15:11:51.010Z,15.30
2022-10-22T15:14:17.947Z,17.60
2022-10-22T15:16:44.754Z,14.90
2022-10-22T15:19:11.758Z,251.00
2022-10-22T15:21:38.679Z,255.90
2022-10-22T15:24:05.696Z,296.70
2022-10-22T15:26:33.145Z,132.70
2022-10-22T15:29:02.458Z,55.70
2022-10-22T15:31:54.081Z,55.50
2022-10-22T15:34:24.606Z,41.40
2022-10-22T15:36:54.340Z,95.20
2022-10-22T15:39:22.321Z,46.10
2022-10-22T15:41:50.678Z,20.80
2022-10-22T15:44:21.261Z,15.60
2022-10-22T15:49:27.639Z,18.00
2022-10-22T15:51:54.760Z,57.50
2022-10-22T15:54:25.144Z,13.20
2022-10-22T15:56:51.962Z,19.30
2022-10-22T15:59:18.776Z,15.80
2022-10-22T16:01:45.735Z,23.60
2022-10-22T16:04:12.639Z,44.30
2022-10-22T16:06:39.262Z,91.60
2022-10-22T16:09:12.303Z,18.10
2022-10-22T16:11:39.751Z,23.40
2022-10-22T16:14:07.924Z,21.20
2022-10-22T16:16:38.838Z,29.30
2022-10-22T16:19:06.485Z,22.20
2022-10-22T16:21:33.629Z,24.60
2022-10-22T16:24:05.950Z,40.00
2022-10-22T16:26:34.460Z,24.20
2022-10-22T16:29:01.541Z,69.20
2022-10-22T16:31:28.447Z,26.40
2022-10-22T16:33:55.734Z,29.50
2022-10-22T16:36:22.787Z,24.10
2022-10-22T16:38:49.963Z,32.50
2022-10-22T16:41:24.753Z,21.50
2022-10-22T16:43:54.689Z,73.00
2022-10-22T16:46:22.589Z,74.20
2022-10-22T16:48:51.468Z,49.00
2022-10-22T16:51:22.732Z,54.60
2022-10-22T16:53:54.583Z,58.60
2022-10-22T16:56:21.846Z,44.70
2022-10-22T16:58:51.205Z,29.80
2022-10-22T17:01:20.550Z,26.60
2022-10-22T17:03:47.262Z,29.70
2022-10-22T17:06:14.521Z,23.20
2022-10-22T17:08:42.107Z,13.30
2022-10-22T17:11:16.891Z,12.80
2022-10-22T17:13:46.293Z,11.00
2022-10-22T17:16:15.446Z,13.20
2022-10-22T17:21:14.253Z,22.90
2022-10-22T17:23:42.047Z,18.20
2022-10-22T17:26:17.272Z,15.50
2022-10-22T17:28:44.553Z,10.20
2022-10-22T17:31:36.905Z,9.40
2022-10-22T17:34:06.382Z,10.40
2022-10-22T17:36:35.895Z,8.70
2022-10-22T17:39:06.598Z,7.90
2022-10-22T17:41:36.305Z,8.50
2022-10-22T17:44:05.786Z,11.00
2022-10-22T17:46:32.768Z,6.40
2022-10-22T17:49:07.683Z,8.10
2022-10-22T17:51:34.596Z,10.30
2022-10-22T17:54:03.460Z,12.10
2022-10-22T17:56:32.884Z,12.20
2022-10-22T17:58:59.643Z,11.70
2022-10-22T18:01:29.169Z,12.80
2022-10-22T18:04:00.763Z,13.20
2022-10-22T18:06:28.076Z,16.60
2022-10-22T18:08:55.143Z,15.00
2022-10-22T18:11:24.571Z,13.60
2022-10-22T18:13:53.540Z,13.50
2022-10-22T18:16:20.342Z,11.70
2022-10-22T18:18:52.818Z,11.10
2022-10-22T18:21:20.546Z,8.30
2022-10-22T18:23:47.547Z,9.00
2022-10-22T18:26:15.535Z,11.60
2022-10-22T18:28:42.193Z,13.40
2022-10-22T18:31:15.301Z,21.60
2022-10-22T18:33:42.041Z,27.00
2022-10-22T18:36:11.347Z,36.00
2022-10-22T18:38:38.945Z,50.00
2022-10-22T18:41:07.934Z,36.40
2022-10-22T18:43:35.706Z,31.20
2022-10-22T18:46:06.084Z,48.60
2022-10-22T18:48:34.298Z,38.70
2022-10-22T18:51:06.710Z,43.80
2022-10-22T18:53:34.942Z,43.10
2022-10-22T18:56:04.596Z,43.00
2022-10-22T18:58:31.371Z,45.50
2022-10-22T19:00:58.113Z,58.30
2022-10-22T19:03:24.750Z,37.40
2022-10-22T19:05:53.310Z,40.20
2022-10-22T19:08:19.983Z,45.80
2022-10-22T19:10:47.570Z,44.90
2022-10-22T19:13:16.835Z,26.00
2022-10-22T19:15:43.929Z,14.90
2022-10-22T19:18:12.461Z,13.80
2022-10-22T19:20:39.146Z,11.80
2022-10-22T19:23:06.970Z,9.40
2022-10-22T19:25:34.862Z,8.90
2022-10-22T19:28:01.486Z,8.70
2022-10-22T19:30:28.177Z,7.50
2022-10-22T19:32:54.974Z,6.20
2022-10-22T19:35:22.009Z,7.40
2022-10-22T19:37:48.966Z,5.90
2022-10-22T19:40:15.789Z,6.70
2022-10-22T19:42:46.404Z,5.90
2022-10-22T19:45:13.051Z,6.10
2022-10-22T19:47:41.608Z,6.00
2022-10-22T19:50:08.460Z,6.40
2022-10-22T19:52:35.210Z,6.00
2022-10-22T19:55:01.961Z,6.80
2022-10-22T19:57:29.642Z,8.50
2022-10-22T19:59:56.382Z,9.00
2022-10-22T20:02:23.037Z,8.10
2022-10-22T20:04:50.106Z,8.10
2022-10-22T20:07:17.162Z,7.40
2022-10-22T20:09:43.940Z,7.80
2022-10-22T20:12:10.728Z,8.70
2022-10-22T20:14:37.592Z,9.30
2022-10-22T20:17:04.428Z,8.70
2022-10-22T20:19:32.343Z,9.40
2022-10-22T20:24:30.646Z,7.20
2022-10-22T20:26:57.349Z,7.50
2022-10-22T20:29:24.350Z,9.00
2022-10-22T20:31:51.338Z,9.70
2022-10-22T20:34:18.175Z,8.80
2022-10-22T20:36:45.170Z,9.30
2022-10-22T20:39:14.870Z,7.60
2022-10-22T20:41:41.896Z,8.00
2022-10-22T20:44:15.686Z,7.80
2022-10-22T20:46:43.001Z,9.00
2022-10-22T20:49:13.192Z,9.30
2022-10-22T20:51:39.941Z,9.30
2022-10-22T20:54:08.255Z,9.30
2022-10-22T20:56:37.313Z,10.00
2022-10-22T20:59:05.366Z,9.80
2022-10-22T21:01:39.577Z,9.80
2022-10-22T21:04:06.804Z,10.80
2022-10-22T21:06:37.386Z,9.50
2022-10-22T21:09:06.440Z,10.20
2022-10-22T21:11:33.880Z,9.50
2022-10-22T21:14:00.735Z,9.40
2022-10-22T21:16:27.586Z,9.90
2022-10-22T21:18:55.302Z,10.10
2022-10-22T21:21:22.669Z,11.10
2022-10-22T21:23:52.740Z,10.50
2022-10-22T21:26:19.842Z,9.40
2022-10-22T21:28:46.998Z,7.50
2022-10-22T21:31:20.934Z,7.20
2022-10-22T21:33:49.721Z,7.10
2022-10-22T21:36:21.597Z,7.60
2022-10-22T21:38:51.236Z,6.50
2022-10-22T21:41:21.033Z,5.90
2022-10-22T21:43:48.801Z,5.90
2022-10-22T21:46:18.646Z,5.70
2022-10-22T21:48:45.570Z,5.60
2022-10-22T21:51:17.907Z,5.40
2022-10-22T21:53:45.846Z,5.40
2022-10-22T21:56:21.246Z,5.30
2022-10-22T21:58:47.908Z,5.40
2022-10-22T22:01:15.702Z,5.60
2022-10-22T22:03:45.226Z,6.50
2022-10-22T22:06:12.664Z,6.70
2022-10-22T22:08:39.933Z,6.10
2022-10-22T22:11:10.566Z,6.20
2022-10-22T22:13:37.595Z,6.50
2022-10-22T22:16:07.449Z,6.00
2022-10-22T22:18:35.043Z,5.80
2022-10-22T22:21:08.021Z,5.60
2022-10-22T22:23:39.963Z,5.60
2022-10-22T22:26:07.391Z,5.90
2022-10-22T22:28:34.878Z,5.40
2022-10-22T22:31:10.581Z,5.20
2022-10-22T22:33:37.361Z,4.40
2022-10-22T22:36:04.485Z,3.80
2022-10-22T22:38:31.222Z,4.00
2022-10-22T22:40:59.464Z,3.30
2022-10-22T22:43:26.189Z,3.00
2022-10-22T22:46:07.275Z,2.00
2022-10-22T22:48:34.523Z,1.70
2022-10-22T22:51:03.394Z,1.80
2022-10-22T22:53:30.372Z,1.20
2022-10-22T22:56:20.879Z,1.10
2022-10-22T22:58:48.003Z,1.60
2022-10-22T23:01:25.631Z,1.70
2022-10-22T23:03:53.965Z,2.20
2022-10-22T23:06:21.981Z,1.90
2022-10-22T23:08:50.409Z,1.80
2022-10-22T23:11:17.720Z,1.60
2022-10-22T23:13:45.121Z,1.90
2022-10-22T23:16:18.571Z,1.70
2022-10-22T23:18:47.753Z,2.00
2022-10-22T23:21:24.158Z,2.00
2022-10-22T23:23:54.084Z,2.50
2022-10-22T23:26:26.649Z,2.70
2022-10-22T23:28:53.818Z,2.50
2022-10-22T23:31:21.213Z,2.80
2022-10-22T23:33:48.548Z,3.00
2022-10-22T23:36:15.528Z,2.90
2022-10-22T23:38:43.333Z,3.20
2022-10-22T23:41:10.558Z,3.50
2022-10-22T23:43:38.301Z,3.40
2022-10-22T23:46:06.800Z,2.90
2022-10-22T23:48:34.091Z,3.00
2022-10-22T23:51:08.245Z,3.10
2022-10-22T23:53:35.386Z,3.00
2022-10-22T23:56:12.111Z,3.00
2022-10-22T23:58:39.080Z,3.00
